createdAt,value
2019-02-15T00:01:59.470Z,99.90
2019-02-15T00:04:32.109Z,99.90
2019-02-15T00:07:04.890Z,99.90
2019-02-15T00:09:37.234Z,99.90
2019-02-15T00:12:09.753Z,99.90
2019-02-15T00:14:49.484Z,99.90
2019-02-15T00:17:43.924Z,99.90
2019-02-15T00:20:30.458Z,99.90
2019-02-15T00:23:02.881Z,99.90
2019-02-15T00:25:35.534Z,99.90
2019-02-15T00:28:08.376Z,99.90
2019-02-15T00:30:41.017Z,99.90
2019-02-15T00:33:13.696Z,99.90
2019-02-15T00:35:46.452Z,99.90
2019-02-15T00:38:19.243Z,99.90
2019-02-15T00:40:52.361Z,99.90
2019-02-15T00:43:24.838Z,99.90
2019-02-15T00:46:08.656Z,99.90
2019-02-15T00:48:41.398Z,99.90
2019-02-15T00:51:21.387Z,99.90
2019-02-15T00:54:02.791Z,99.90
2019-02-15T00:57:02.999Z,99.90
2019-02-15T01:00:09.723Z,99.90
2019-02-15T01:03:03.961Z,99.90
2019-02-15T01:05:47.190Z,99.90
2019-02-15T01:08:44.987Z,99.90
2019-02-15T01:11:22.281Z,99.90
2019-02-15T01:13:54.998Z,99.90
2019-02-15T01:16:27.370Z,99.90
2019-02-15T01:19:00.257Z,99.90
2019-02-15T01:21:32.574Z,99.90
2019-02-15T01:24:04.990Z,99.90
2019-02-15T01:26:45.352Z,99.90
2019-02-15T01:29:38.863Z,99.90
2019-02-15T01:32:33.046Z,99.90
2019-02-15T01:35:12.979Z,99.90
2019-02-15T01:38:03.571Z,99.90
2019-02-15T01:40:50.716Z,99.90
2019-02-15T01:43:44.963Z,99.90
2019-02-15T01:46:27.710Z,99.90
2019-02-15T01:49:00.453Z,99.90
2019-02-15T01:51:32.837Z,99.90
2019-02-15T01:54:05.332Z,99.90
2019-02-15T01:56:39.340Z,99.90
2019-02-15T01:59:11.841Z,99.90
2019-02-15T02:01:44.647Z,99.90
2019-02-15T02:04:17.282Z,99.90
2019-02-15T02:06:50.038Z,99.90
2019-02-15T02:09:22.482Z,99.90
2019-02-15T02:11:54.993Z,99.90
2019-02-15T02:14:27.389Z,99.90
2019-02-15T02:16:59.948Z,99.90
2019-02-15T02:19:32.518Z,99.90
2019-02-15T02:22:04.856Z,99.90
2019-02-15T02:24:37.243Z,99.90
2019-02-15T02:27:10.034Z,99.90
2019-02-15T02:29:42.661Z,99.90
2019-02-15T02:32:15.244Z,99.90
2019-02-15T02:34:47.885Z,99.90
2019-02-15T02:37:20.542Z,99.90
2019-02-15T02:39:53.214Z,99.90
2019-02-15T02:42:25.695Z,99.90
2019-02-15T02:44:58.210Z,99.90
2019-02-15T02:47:30.837Z,99.90
2019-02-15T02:50:03.260Z,99.90
2019-02-15T02:52:36.434Z,99.90
2019-02-15T02:55:09.002Z,99.90
2019-02-15T02:57:42.309Z,99.90
2019-02-15T03:00:14.769Z,99.90
2019-02-15T03:02:47.116Z,99.90
2019-02-15T03:05:19.819Z,99.90
2019-02-15T03:07:52.361Z,99.90
2019-02-15T03:10:24.985Z,99.90
2019-02-15T03:12:57.798Z,99.90
2019-02-15T03:15:30.836Z,99.90
2019-02-15T03:18:03.532Z,99.90
2019-02-15T03:20:36.043Z,99.90
2019-02-15T03:23:08.386Z,99.90
2019-02-15T03:25:40.786Z,99.90
2019-02-15T03:28:24.471Z,99.90
2019-02-15T03:30:56.972Z,99.90
2019-02-15T03:33:29.671Z,99.90
2019-02-15T03:36:04.606Z,99.90
2019-02-15T03:39:11.014Z,99.90
2019-02-15T03:41:43.624Z,99.90
2019-02-15T03:44:22.178Z,99.90
2019-02-15T03:46:51.955Z,99.90
2019-02-15T03:49:24.428Z,99.90
2019-02-15T03:51:57.020Z,99.90
2019-02-15T03:54:29.665Z,99.90
2019-02-15T03:57:02.213Z,99.90
2019-02-15T03:59:34.646Z,99.90
2019-02-15T04:02:07.195Z,99.90
2019-02-15T04:04:39.909Z,99.90
2019-02-15T04:07:12.540Z,99.90
2019-02-15T04:09:45.627Z,99.90
2019-02-15T04:12:18.488Z,99.90
2019-02-15T04:14:51.191Z,99.90
2019-02-15T04:17:23.694Z,99.90
2019-02-15T04:19:56.173Z,99.90
2019-02-15T04:22:28.553Z,99.90
2019-02-15T04:25:01.160Z,99.90
2019-02-15T04:27:33.576Z,99.90
2019-02-15T04:30:07.160Z,99.90
2019-02-15T04:32:40.309Z,99.90
2019-02-15T04:35:12.961Z,99.90
2019-02-15T04:37:45.541Z,99.90
2019-02-15T04:40:18.187Z,99.90
2019-02-15T04:42:50.672Z,99.90
2019-02-15T04:45:23.340Z,99.90
2019-02-15T04:47:56.105Z,99.90
2019-02-15T04:50:28.554Z,99.90
2019-02-15T04:53:03.074Z,99.90
2019-02-15T04:55:35.373Z,99.90
2019-02-15T04:58:08.061Z,99.90
2019-02-15T05:00:42.019Z,99.90
2019-02-15T05:03:15.001Z,99.90
2019-02-15T05:05:47.562Z,99.90
2019-02-15T05:08:20.199Z,99.90
2019-02-15T05:10:52.933Z,99.90
2019-02-15T05:13:25.345Z,99.90
2019-02-15T05:15:57.995Z,99.90
2019-02-15T05:18:30.970Z,99.90
2019-02-15T05:21:03.696Z,99.90
2019-02-15T05:23:36.348Z,99.90
2019-02-15T05:26:09.126Z,99.90
2019-02-15T05:28:41.759Z,99.90
2019-02-15T05:31:14.190Z,99.90
2019-02-15T05:33:46.779Z,99.90
2019-02-15T05:36:19.734Z,99.90
2019-02-15T05:38:52.551Z,99.90
2019-02-15T05:41:25.259Z,99.90
2019-02-15T05:43:57.910Z,99.90
2019-02-15T05:46:30.504Z,99.90
2019-02-15T05:49:03.695Z,99.90
2019-02-15T05:51:36.250Z,99.90
2019-02-15T05:54:09.026Z,99.90
2019-02-15T05:56:41.518Z,99.90
2019-02-15T05:59:14.046Z,99.90
2019-02-15T06:01:46.645Z,99.90
2019-02-15T06:04:18.917Z,99.90
2019-02-15T06:06:51.654Z,99.90
2019-02-15T06:09:24.048Z,99.90
2019-02-15T06:11:56.884Z,99.90
2019-02-15T06:14:29.549Z,99.90
2019-02-15T06:17:02.223Z,99.90
2019-02-15T06:19:34.706Z,99.90
2019-02-15T06:22:07.302Z,99.90
2019-02-15T06:24:39.695Z,99.90
2019-02-15T06:27:12.308Z,99.90
2019-02-15T06:29:44.900Z,99.90
2019-02-15T06:32:17.447Z,99.90
2019-02-15T06:34:50.059Z,99.90
2019-02-15T06:37:22.604Z,99.90
2019-02-15T06:39:54.997Z,99.90
2019-02-15T06:42:27.583Z,99.90
2019-02-15T06:45:00.401Z,99.90
2019-02-15T06:47:32.841Z,99.90
2019-02-15T06:50:05.708Z,99.90
2019-02-15T06:52:38.275Z,99.90
2019-02-15T06:55:11.032Z,99.90
2019-02-15T06:57:43.874Z,99.90
2019-02-15T07:00:38.701Z,99.90
2019-02-15T07:03:36.179Z,99.90
2019-02-15T07:06:08.910Z,99.90
2019-02-15T07:08:41.593Z,99.90
2019-02-15T07:11:14.248Z,99.90
2019-02-15T07:13:47.146Z,99.90
2019-02-15T07:16:19.744Z,99.90
2019-02-15T07:18:52.295Z,99.90
2019-02-15T07:21:24.957Z,99.90
2019-02-15T07:23:57.354Z,99.90
2019-02-15T07:26:30.111Z,99.90
2019-02-15T07:29:02.932Z,99.90
2019-02-15T07:31:35.433Z,99.90
2019-02-15T07:34:08.200Z,99.90
2019-02-15T07:36:40.935Z,99.90
2019-02-15T07:39:13.429Z,99.90
2019-02-15T07:41:45.879Z,99.90
2019-02-15T07:44:18.531Z,99.90
2019-02-15T07:46:51.171Z,99.90
2019-02-15T07:49:26.945Z,99.90
2019-02-15T07:51:58.029Z,99.90
2019-02-15T07:54:31.228Z,99.90
2019-02-15T07:57:03.754Z,99.90
2019-02-15T07:59:36.649Z,99.90
2019-02-15T08:02:09.295Z,99.90
2019-02-15T08:04:41.738Z,99.90
2019-02-15T08:07:14.118Z,99.90
2019-02-15T08:09:46.816Z,99.90
2019-02-15T08:12:19.521Z,99.90
2019-02-15T08:14:52.091Z,99.90
2019-02-15T08:17:24.610Z,99.90
2019-02-15T08:19:57.227Z,99.90
2019-02-15T08:22:29.890Z,99.90
2019-02-15T08:25:02.967Z,99.90
2019-02-15T08:27:35.583Z,99.90
2019-02-15T08:30:09.253Z,97.50
2019-02-15T08:32:41.767Z,94.70
2019-02-15T08:35:14.421Z,92.20
2019-02-15T08:37:48.867Z,89.80
2019-02-15T08:40:21.340Z,92.10
2019-02-15T08:42:53.711Z,94.20
2019-02-15T08:45:26.339Z,95.50
2019-02-15T08:47:59.181Z,96.70
2019-02-15T08:50:31.693Z,98.40
2019-02-15T08:53:04.193Z,99.70
2019-02-15T08:55:36.610Z,99.90
2019-02-15T08:58:11.283Z,99.90
2019-02-15T09:00:43.397Z,99.90
2019-02-15T09:03:15.905Z,99.90
2019-02-15T09:05:48.447Z,99.90
2019-02-15T09:08:21.122Z,99.90
2019-02-15T09:10:53.559Z,99.90
2019-02-15T09:13:26.050Z,99.90
2019-02-15T09:15:58.731Z,99.90
2019-02-15T09:18:31.559Z,99.20
2019-02-15T09:21:05.723Z,98.80
2019-02-15T09:23:38.355Z,95.70
2019-02-15T09:26:18.002Z,92.90
2019-02-15T09:28:49.724Z,92.80
2019-02-15T09:31:22.572Z,94.50
2019-02-15T09:33:55.049Z,97.10
2019-02-15T09:36:27.667Z,98.10
2019-02-15T09:39:00.384Z,98.00
2019-02-15T09:41:33.132Z,98.10
2019-02-15T09:44:05.861Z,98.30
2019-02-15T09:46:38.690Z,99.40
2019-02-15T09:49:11.289Z,99.70
2019-02-15T09:51:44.155Z,99.90
2019-02-15T09:54:16.609Z,99.90
2019-02-15T09:56:49.466Z,99.90
2019-02-15T09:59:22.780Z,99.90
2019-02-15T10:01:55.408Z,99.90
2019-02-15T10:04:28.029Z,99.90
2019-02-15T10:07:02.203Z,99.90
2019-02-15T10:09:36.486Z,99.90
2019-02-15T10:12:08.867Z,99.90
2019-02-15T10:14:41.524Z,99.80
2019-02-15T10:17:14.233Z,99.60
2019-02-15T10:19:46.764Z,99.70
2019-02-15T10:22:19.194Z,99.40
2019-02-15T10:24:52.039Z,99.90
2019-02-15T10:27:24.765Z,99.90
2019-02-15T10:29:57.386Z,99.90
2019-02-15T10:32:29.979Z,99.90
2019-02-15T10:35:02.654Z,99.90
2019-02-15T10:37:35.063Z,99.90
2019-02-15T10:40:08.301Z,99.90
2019-02-15T10:42:40.741Z,99.90
2019-02-15T10:45:14.009Z,99.90
2019-02-15T10:47:46.691Z,99.90
2019-02-15T10:50:19.423Z,99.90
2019-02-15T10:52:51.943Z,99.90
2019-02-15T10:55:24.452Z,99.90
2019-02-15T10:57:56.917Z,99.90
2019-02-15T11:00:29.542Z,99.90
2019-02-15T11:03:01.993Z,99.90
2019-02-15T11:05:34.553Z,99.90
2019-02-15T11:08:07.524Z,99.90
2019-02-15T11:10:40.359Z,99.90
2019-02-15T11:13:13.069Z,99.90
2019-02-15T11:15:45.457Z,99.90
2019-02-15T11:18:18.192Z,99.90
2019-02-15T11:20:53.636Z,99.90
2019-02-15T11:23:26.280Z,99.90
2019-02-15T11:25:58.690Z,99.90
2019-02-15T11:28:31.176Z,99.90
2019-02-15T11:31:04.041Z,99.90
2019-02-15T11:33:37.207Z,99.80
2019-02-15T11:36:09.922Z,99.90
2019-02-15T11:38:42.833Z,99.80
2019-02-15T11:41:15.555Z,99.90
2019-02-15T11:43:48.574Z,99.90
2019-02-15T11:46:21.245Z,99.60
2019-02-15T11:48:54.318Z,99.80
2019-02-15T11:51:26.730Z,99.70
2019-02-15T11:53:59.298Z,99.60
2019-02-15T11:56:32.042Z,99.50
2019-02-15T11:59:05.115Z,99.00
2019-02-15T12:01:37.450Z,98.80
2019-02-15T12:04:09.888Z,99.50
2019-02-15T12:06:42.199Z,98.10
2019-02-15T12:09:14.812Z,97.50
2019-02-15T12:11:47.390Z,96.10
2019-02-15T12:14:19.907Z,94.90
2019-02-15T12:16:52.647Z,93.70
2019-02-15T12:19:25.752Z,94.00
2019-02-15T12:21:58.409Z,94.90
2019-02-15T12:24:31.529Z,95.80
2019-02-15T12:27:03.971Z,95.60
2019-02-15T12:29:36.867Z,94.70
2019-02-15T12:32:09.303Z,95.50
2019-02-15T12:34:42.014Z,95.10
2019-02-15T12:37:14.455Z,95.50
2019-02-15T12:39:47.174Z,95.50
2019-02-15T12:42:19.878Z,95.80
2019-02-15T12:44:52.464Z,95.70
2019-02-15T12:47:25.303Z,95.40
2019-02-15T12:49:58.086Z,94.30
2019-02-15T12:52:30.621Z,93.60
2019-02-15T12:55:04.026Z,93.60
2019-02-15T12:57:37.489Z,93.80
2019-02-15T13:00:12.939Z,93.50
2019-02-15T13:02:45.806Z,93.00
2019-02-15T13:05:18.230Z,93.30
2019-02-15T13:07:50.790Z,94.20
2019-02-15T13:10:25.630Z,94.20
2019-02-15T13:12:58.201Z,95.00
2019-02-15T13:15:30.750Z,94.80
2019-02-15T13:18:03.141Z,94.90
2019-02-15T13:20:35.724Z,95.30
2019-02-15T13:23:08.627Z,95.90
2019-02-15T13:25:41.451Z,95.80
2019-02-15T13:28:14.087Z,95.10
2019-02-15T13:30:46.668Z,95.20
2019-02-15T13:33:19.224Z,95.40
2019-02-15T13:35:51.806Z,95.80
2019-02-15T13:38:25.173Z,96.40
2019-02-15T13:40:57.578Z,96.50
2019-02-15T13:43:30.192Z,97.10
2019-02-15T13:46:02.563Z,97.10
2019-02-15T13:48:35.038Z,97.50
2019-02-15T13:51:07.717Z,97.70
2019-02-15T13:53:40.485Z,97.50
2019-02-15T13:56:13.062Z,97.60
2019-02-15T13:58:45.472Z,97.70
2019-02-15T14:01:18.184Z,97.60
2019-02-15T14:03:50.884Z,97.60
2019-02-15T14:06:23.392Z,97.70
2019-02-15T14:08:55.934Z,97.70
2019-02-15T14:11:28.533Z,97.70
2019-02-15T14:14:00.881Z,97.80
2019-02-15T14:16:33.340Z,97.80
2019-02-15T14:19:05.876Z,97.50
2019-02-15T14:21:44.440Z,98.00
2019-02-15T14:24:13.062Z,97.90
2019-02-15T14:26:45.721Z,98.60
2019-02-15T14:29:18.264Z,98.20
2019-02-15T14:31:50.711Z,98.10
2019-02-15T14:34:22.991Z,98.30
2019-02-15T14:36:55.528Z,98.10
2019-02-15T14:39:28.214Z,98.40
2019-02-15T14:42:00.776Z,98.20
2019-02-15T14:44:33.612Z,98.50
2019-02-15T14:47:06.425Z,97.80
2019-02-15T14:49:38.795Z,98.50
2019-02-15T14:52:11.289Z,98.20
2019-02-15T14:54:43.711Z,98.10
2019-02-15T14:57:16.489Z,98.00
2019-02-15T14:59:49.625Z,97.80
2019-02-15T15:02:21.950Z,98.50
2019-02-15T15:04:54.605Z,98.10
2019-02-15T15:07:29.172Z,98.10
2019-02-15T15:10:01.750Z,98.50
2019-02-15T15:12:34.229Z,98.50
2019-02-15T15:15:07.712Z,98.40
2019-02-15T15:17:40.279Z,98.50
2019-02-15T15:20:13.439Z,98.90
2019-02-15T15:22:45.994Z,99.20
2019-02-15T15:25:18.465Z,99.40
2019-02-15T15:27:51.130Z,99.70
2019-02-15T15:30:23.616Z,99.90
2019-02-15T15:32:56.440Z,99.90
2019-02-15T15:35:29.151Z,99.90
2019-02-15T15:38:01.714Z,99.90
2019-02-15T15:40:34.125Z,99.90
2019-02-15T15:43:06.718Z,99.90
2019-02-15T15:45:39.205Z,99.90
2019-02-15T15:48:12.076Z,99.90
2019-02-15T15:50:44.756Z,99.90
2019-02-15T15:53:17.107Z,99.90
2019-02-15T15:55:49.789Z,99.90
2019-02-15T15:58:22.330Z,99.90
2019-02-15T16:00:54.611Z,99.90
2019-02-15T16:03:27.058Z,99.90
2019-02-15T16:06:00.282Z,99.90
2019-02-15T16:08:33.245Z,99.90
2019-02-15T16:11:06.084Z,99.90
2019-02-15T16:13:38.492Z,99.90
2019-02-15T16:16:11.051Z,99.90
2019-02-15T16:18:43.800Z,99.90
2019-02-15T16:21:16.269Z,99.90
2019-02-15T16:23:50.564Z,99.90
2019-02-15T16:26:23.428Z,99.90
2019-02-15T16:28:56.341Z,99.90
2019-02-15T16:31:28.898Z,99.90
2019-02-15T16:34:01.563Z,99.90
2019-02-15T16:36:34.454Z,99.90
2019-02-15T16:39:08.321Z,99.90
2019-02-15T16:41:40.758Z,99.90
2019-02-15T16:44:13.950Z,99.90
2019-02-15T16:46:46.557Z,99.90
2019-02-15T16:49:18.975Z,99.90
2019-02-15T16:51:51.340Z,99.90
2019-02-15T16:54:23.986Z,99.90
2019-02-15T16:56:56.456Z,99.90
2019-02-15T16:59:29.383Z,99.90
2019-02-15T17:02:01.969Z,99.90
2019-02-15T17:04:35.352Z,99.90
2019-02-15T17:07:07.711Z,99.90
2019-02-15T17:09:40.289Z,99.90
2019-02-15T17:12:12.697Z,99.90
2019-02-15T17:14:46.635Z,99.90
2019-02-15T17:17:19.599Z,99.90
2019-02-15T17:19:52.040Z,99.90
2019-02-15T17:22:24.430Z,99.90
2019-02-15T17:24:57.921Z,99.90
2019-02-15T17:27:30.267Z,99.90
2019-02-15T17:30:02.813Z,99.90
2019-02-15T17:32:35.338Z,99.90
2019-02-15T17:35:08.922Z,99.90
2019-02-15T17:37:41.553Z,99.90
2019-02-15T17:40:14.373Z,99.90
2019-02-15T17:42:46.761Z,99.90
2019-02-15T17:45:20.520Z,99.90
2019-02-15T17:47:53.211Z,99.90
2019-02-15T17:50:25.999Z,99.90
2019-02-15T17:52:58.743Z,99.90
2019-02-15T17:55:31.507Z,99.90
2019-02-15T17:58:04.405Z,99.90
2019-02-15T18:00:37.016Z,99.90
2019-02-15T18:03:09.461Z,99.90
2019-02-15T18:05:42.032Z,99.90
2019-02-15T18:08:14.333Z,99.90
2019-02-15T18:10:47.406Z,99.90
2019-02-15T18:13:19.933Z,99.90
2019-02-15T18:15:52.561Z,99.90
2019-02-15T18:18:25.261Z,99.90
2019-02-15T18:20:57.953Z,99.90
2019-02-15T18:23:30.669Z,99.90
2019-02-15T18:26:03.233Z,99.90
2019-02-15T18:28:35.841Z,99.90
2019-02-15T18:31:08.571Z,99.90
2019-02-15T18:33:41.214Z,99.90
2019-02-15T18:36:13.609Z,99.90
2019-02-15T18:38:46.350Z,99.90
2019-02-15T18:41:18.762Z,99.90
2019-02-15T18:43:51.431Z,99.90
2019-02-15T18:46:25.437Z,99.90
2019-02-15T18:49:00.366Z,99.90
2019-02-15T18:51:32.194Z,99.90
2019-02-15T18:54:04.954Z,99.90
2019-02-15T18:56:37.741Z,99.90
2019-02-15T18:59:10.244Z,99.90
2019-02-15T19:01:42.944Z,99.90
2019-02-15T19:04:15.469Z,99.90
2019-02-15T19:06:48.249Z,99.90
2019-02-15T19:09:20.705Z,99.90
2019-02-15T19:11:53.250Z,99.90
2019-02-15T19:14:25.783Z,99.90
2019-02-15T19:16:58.584Z,99.90
2019-02-15T19:19:31.080Z,99.90
2019-02-15T19:22:03.598Z,99.90
2019-02-15T19:24:37.069Z,99.90
2019-02-15T19:27:10.048Z,99.90
2019-02-15T19:29:42.646Z,99.90
2019-02-15T19:32:15.440Z,99.90
2019-02-15T19:34:48.177Z,99.90
2019-02-15T19:37:22.201Z,99.90
2019-02-15T19:39:55.079Z,99.90
2019-02-15T19:42:27.828Z,99.90
2019-02-15T19:45:00.549Z,99.90
2019-02-15T19:47:33.278Z,99.90
2019-02-15T19:50:06.549Z,99.90
2019-02-15T19:52:39.331Z,99.90
2019-02-15T19:55:12.447Z,99.90
2019-02-15T19:57:44.880Z,99.90
2019-02-15T20:00:18.825Z,99.90
2019-02-15T20:02:51.762Z,99.90
2019-02-15T20:05:24.390Z,99.90
2019-02-15T20:07:57.681Z,99.90
2019-02-15T20:10:30.688Z,99.90
2019-02-15T20:13:03.735Z,99.90
2019-02-15T20:15:36.480Z,99.90
2019-02-15T20:18:09.150Z,99.90
2019-02-15T20:20:41.667Z,99.90
2019-02-15T20:23:14.340Z,99.90
2019-02-15T20:25:47.089Z,99.90
2019-02-15T20:28:19.593Z,99.90
2019-02-15T20:30:52.292Z,99.90
2019-02-15T20:33:24.890Z,99.90
2019-02-15T20:35:57.522Z,99.90
2019-02-15T20:38:29.993Z,99.90
2019-02-15T20:41:03.028Z,99.90
2019-02-15T20:43:35.679Z,99.90
2019-02-15T20:46:08.502Z,99.90
2019-02-15T20:48:41.181Z,99.90
2019-02-15T20:51:13.640Z,99.90
2019-02-15T20:53:46.335Z,99.90
2019-02-15T20:56:20.324Z,99.90
2019-02-15T20:58:53.454Z,99.90
2019-02-15T21:01:25.881Z,99.90
2019-02-15T21:03:58.464Z,99.90
2019-02-15T21:06:30.823Z,99.90
2019-02-15T21:09:03.780Z,99.90
2019-02-15T21:11:36.785Z,99.90
2019-02-15T21:14:09.357Z,99.90
2019-02-15T21:16:41.854Z,99.90
2019-02-15T21:19:14.494Z,99.90
2019-02-15T21:21:47.201Z,99.90
2019-02-15T21:24:19.857Z,99.90
2019-02-15T21:26:52.771Z,99.90
2019-02-15T21:29:25.565Z,99.90
2019-02-15T21:31:58.603Z,99.90
2019-02-15T21:34:31.298Z,99.90
2019-02-15T21:37:04.090Z,99.90
2019-02-15T21:39:36.894Z,99.90
2019-02-15T21:42:09.483Z,99.90
2019-02-15T21:44:42.149Z,99.90
2019-02-15T21:47:15.104Z,99.90
2019-02-15T21:49:48.088Z,99.90
2019-02-15T21:52:20.863Z,99.90
2019-02-15T21:54:53.385Z,99.90
2019-02-15T21:57:27.418Z,99.90
2019-02-15T22:00:00.317Z,99.90
2019-02-15T22:02:32.806Z,99.90
2019-02-15T22:05:05.775Z,99.90
2019-02-15T22:07:39.332Z,99.90
2019-02-15T22:10:12.305Z,99.90
2019-02-15T22:12:45.017Z,99.90
2019-02-15T22:15:17.606Z,99.90
2019-02-15T22:17:50.363Z,99.90
2019-02-15T22:20:26.672Z,99.90
2019-02-15T22:22:57.447Z,99.90
2019-02-15T22:25:30.053Z,99.90
2019-02-15T22:28:02.597Z,99.90
2019-02-15T22:30:35.111Z,99.90
2019-02-15T22:33:07.534Z,99.90
2019-02-15T22:35:39.954Z,99.90
2019-02-15T22:38:12.768Z,99.90
2019-02-15T22:40:47.147Z,99.90
2019-02-15T22:43:22.636Z,99.90
2019-02-15T22:45:55.386Z,99.90
2019-02-15T22:48:28.040Z,99.90
2019-02-15T22:51:00.661Z,99.90
2019-02-15T22:53:34.054Z,99.90
2019-02-15T22:56:08.209Z,99.90
2019-02-15T22:58:40.799Z,99.90
2019-02-15T23:01:22.259Z,99.90
2019-02-15T23:03:55.017Z,99.90
2019-02-15T23:06:27.617Z,99.90
2019-02-15T23:09:00.901Z,99.90
2019-02-15T23:11:33.704Z,99.90
2019-02-15T23:14:06.278Z,99.90
2019-02-15T23:16:38.740Z,99.90
2019-02-15T23:19:11.309Z,99.90
2019-02-15T23:21:43.845Z,99.90
2019-02-15T23:24:16.647Z,99.90
2019-02-15T23:26:49.156Z,99.90
2019-02-15T23:29:21.808Z,99.90
2019-02-15T23:31:54.285Z,99.90
2019-02-15T23:34:26.965Z,99.90
2019-02-15T23:36:59.703Z,99.90
2019-02-15T23:39:32.585Z,99.90
2019-02-15T23:42:05.224Z,99.90
2019-02-15T23:44:37.815Z,99.90
2019-02-15T23:47:10.688Z,99.90
2019-02-15T23:49:43.392Z,99.90
2019-02-15T23:52:15.940Z,99.90
2019-02-15T23:54:48.256Z,99.90
2019-02-15T23:57:20.848Z,99.90
2019-02-15T23:59:53.790Z,99.90
